Time;durP1;ratioP1;P1;durP2;ratioP2;P2;SDS_P1;SDS_P2;PMS_P1;PMS_P2;Temp;Humidity;BMP_temperature;BMP_pressure;BME280_temperature;BME280_humidity;BME280_pressure;Samples;Min_cycle;Max_cycle;Signal;HPM_P1;HPM_P2
2023/05/16 00:02:12;;;;;;;1.38;0.68;;;;;;;16.86;93.63;99849.94;4951078;29;20070;-83
2023/05/16 00:04:41;;;;;;;0.50;0.40;;;;;;;16.81;91.64;99852.91;4951435;29;20044;-83
2023/05/16 00:07:09;;;;;;;2.22;0.50;;;;;;;16.77;96.61;99857.53;4949853;29;20062;-83
2023/05/16 00:09:37;;;;;;;2.10;0.60;;;;;;;16.80;96.21;99851.31;4949913;29;20047;-84
2023/05/16 00:12:05;;;;;;;0.60;0.60;;;;;;;16.81;96.89;99847.38;4950973;29;20058;-84
2023/05/16 00:14:35;;;;;;;0.70;0.63;;;;;;;16.68;100.00;99840.22;4950981;29;20509;-84
2023/05/16 00:17:10;;;;;;;0.60;0.60;;;;;;;16.64;97.44;99837.31;4951045;29;20035;-84
2023/05/16 00:19:40;;;;;;;0.90;0.70;;;;;;;16.58;98.41;99827.63;4946735;29;20063;-84
2023/05/16 00:22:10;;;;;;;0.45;0.45;;;;;;;16.54;99.38;99819.22;4945920;29;20062;-85
2023/05/16 00:24:38;;;;;;;1.38;0.60;;;;;;;16.49;100.00;99824.94;4965458;28;20044;-84
2023/05/16 00:27:06;;;;;;;0.50;0.50;;;;;;;16.35;98.26;99820.53;4950933;29;20050;-84
2023/05/16 00:29:34;;;;;;;0.68;0.50;;;;;;;16.38;97.06;99811.53;4965588;28;20405;-85
2023/05/16 00:32:02;;;;;;;2.22;0.77;;;;;;;16.43;97.17;99807.75;4950758;29;20408;-85
2023/05/16 00:34:30;;;;;;;0.57;0.43;;;;;;;16.52;97.29;99810.44;4949730;29;20043;-84
2023/05/16 00:36:58;;;;;;;0.43;0.43;;;;;;;16.44;100.00;99803.06;4965907;28;20039;-85
2023/05/16 00:39:26;;;;;;;0.57;0.57;;;;;;;16.36;100.00;99805.56;4950663;29;20397;-85
2023/05/16 00:41:56;;;;;;;0.35;0.35;;;;;;;16.23;100.00;99792.88;4950833;29;20057;-85
2023/05/16 00:44:24;;;;;;;0.50;0.50;;;;;;;16.29;100.00;99794.28;4950883;29;20039;-85
2023/05/16 00:46:53;;;;;;;0.50;0.50;;;;;;;16.20;99.29;99799.03;4950678;29;20390;-84
2023/05/16 00:49:21;;;;;;;0.45;0.45;;;;;;;16.16;96.99;99792.56;4980272;28;20066;-84
2023/05/16 00:51:50;;;;;;;0.85;0.60;;;;;;;16.06;99.83;99794.63;4987872;28;20519;-84
2023/05/16 00:54:21;;;;;;;0.50;0.50;;;;;;;16.12;99.22;99784.97;4988022;28;20046;-84
2023/05/16 00:56:50;;;;;;;0.63;0.63;;;;;;;16.18;97.04;99788.34;4988679;28;20046;-84
2023/05/16 00:59:18;;;;;;;0.45;0.45;;;;;;;16.09;100.00;99788.41;4989326;28;20058;-84
2023/05/16 01:01:47;;;;;;;0.50;0.50;;;;;;;16.00;99.16;99793.19;4989213;28;20043;-84
2023/05/16 01:04:15;;;;;;;0.57;0.50;;;;;;;15.94;100.00;99784.28;4988465;28;20489;-83
2023/05/16 01:06:45;;;;;;;0.60;0.60;;;;;;;15.87;100.00;99791.50;4989029;28;20057;-84
2023/05/16 01:09:13;;;;;;;0.80;0.60;;;;;;;15.84;100.00;99787.44;5019076;28;20042;-84
2023/05/16 01:12:05;;;;;;;0.60;0.60;;;;;;;15.82;100.00;99776.72;4988932;28;20050;-83
2023/05/16 01:15:08;;;;;;;0.85;0.40;;;;;;;15.84;100.00;99782.72;4988988;28;20046;-83
2023/05/16 01:18:13;;;;;;;0.50;0.50;;;;;;;15.81;100.00;99779.81;5089925;28;20046;-83
2023/05/16 01:20:54;;;;;;;0.60;0.60;;;;;;;15.85;100.00;99781.56;4992307;28;20057;-83
2023/05/16 01:23:49;;;;;;;0.60;0.60;;;;;;;15.84;100.00;99779.16;4992279;28;20400;-83
2023/05/16 01:26:23;;;;;;;0.40;0.40;;;;;;;15.93;100.00;99781.91;4992258;28;20054;-84
2023/05/16 01:28:52;;;;;;;0.38;0.38;;;;;;;15.87;100.00;99774.94;4992318;28;20050;-83
2023/05/16 01:31:21;;;;;;;0.63;0.57;;;;;;;15.87;100.00;99772.97;4992089;28;20385;-84
2023/05/16 01:33:50;;;;;;;0.68;0.60;;;;;;;15.87;100.00;99772.16;4990708;28;20054;-84
2023/05/16 01:36:54;;;;;;;0.85;0.57;;;;;;;15.94;100.00;99762.22;4992260;28;20058;-84
2023/05/16 01:39:44;;;;;;;3.15;1.23;;;;;;;15.91;100.00;99751.84;4957518;28;20054;-84
2023/05/16 01:42:20;;;;;;;0.60;0.60;;;;;;;16.03;100.00;99770.44;4992071;28;20050;-84
2023/05/16 01:44:58;;;;;;;0.40;0.40;;;;;;;16.09;100.00;99762.78;4991088;28;20396;-84
2023/05/16 01:47:29;;;;;;;0.60;0.60;;;;;;;16.07;100.00;99757.59;4992211;28;20039;-84
2023/05/16 01:50:16;;;;;;;0.43;0.40;;;;;;;16.04;100.00;99751.94;4990940;28;20043;-84
2023/05/16 01:52:52;;;;;;;0.73;0.70;;;;;;;15.87;100.00;99736.31;4991975;28;20046;-84
2023/05/16 01:55:55;;;;;;;0.80;0.60;;;;;;;16.00;100.00;99746.28;4990696;28;20063;-84
2023/05/16 01:58:27;;;;;;;0.70;0.68;;;;;;;16.02;100.00;99735.72;4991818;28;20392;-84
2023/05/16 02:01:04;;;;;;;0.70;0.70;;;;;;;15.97;100.00;99730.41;4990236;28;20370;-84
2023/05/16 02:03:32;;;;;;;0.55;0.55;;;;;;;15.97;100.00;99727.63;4991645;28;20051;-84
2023/05/16 02:06:00;;;;;;;1.63;0.60;;;;;;;15.90;100.00;99724.59;4974563;28;20050;-83
2023/05/16 02:08:29;;;;;;;1.58;0.85;;;;;;;15.84;100.00;99730.31;5022762;28;20523;-84
2023/05/16 02:10:57;;;;;;;0.70;0.60;;;;;;;15.74;100.00;99722.41;4991653;28;20046;-83
2023/05/16 02:13:25;;;;;;;1.15;1.13;;;;;;;15.78;100.00;99720.63;4991145;28;20054;-84
2023/05/16 02:15:53;;;;;;;1.20;0.68;;;;;;;15.84;100.00;99719.25;4991501;28;20487;-83
2023/05/16 02:18:22;;;;;;;1.02;0.85;;;;;;;15.92;99.99;99725.03;4991424;28;20054;-84
2023/05/16 02:20:51;;;;;;;0.50;0.50;;;;;;;15.87;100.00;99717.00;4991671;28;20055;-83
2023/05/16 02:23:19;;;;;;;0.70;0.70;;;;;;;15.82;100.00;99718.81;4991261;28;20050;-84
2023/05/16 02:25:47;;;;;;;0.70;0.68;;;;;;;15.89;100.00;99715.50;4990891;28;20042;-83
2023/05/16 02:28:15;;;;;;;0.52;0.52;;;;;;;15.90;100.00;99716.31;4990750;28;20378;-83
2023/05/16 02:30:43;;;;;;;0.82;0.70;;;;;;;15.88;99.25;99705.59;4990556;28;20043;-83
2023/05/16 02:33:11;;;;;;;1.00;0.80;;;;;;;15.95;97.17;99713.38;4990925;28;20153;-84
2023/05/16 02:35:39;;;;;;;2.63;0.50;;;;;;;16.05;95.19;99717.66;4991219;28;20061;-84
2023/05/16 02:38:08;;;;;;;0.60;0.60;;;;;;;16.15;92.52;99716.44;4991372;28;20050;-83
2023/05/16 02:40:36;;;;;;;0.77;0.60;;;;;;;16.07;90.78;99707.09;4990201;28;20058;-82
2023/05/16 02:43:04;;;;;;;0.65;0.65;;;;;;;16.17;91.39;99708.66;4991383;28;20802;-83
2023/05/16 02:45:32;;;;;;;0.40;0.40;;;;;;;16.27;87.77;99705.44;4991365;28;20046;-82
2023/05/16 02:48:00;;;;;;;0.77;0.50;;;;;;;16.49;83.80;99709.78;4991016;28;20054;-82
2023/05/16 02:50:28;;;;;;;0.50;0.50;;;;;;;16.62;81.84;99707.03;4991186;28;20046;-82
2023/05/16 02:52:58;;;;;;;0.40;0.40;;;;;;;16.81;81.01;99691.88;4973897;28;20050;-82
2023/05/16 02:55:29;;;;;;;0.50;0.50;;;;;;;16.98;80.64;99699.13;4989932;28;20061;-82
2023/05/16 02:57:57;;;;;;;0.90;0.80;;;;;;;16.85;81.45;99692.78;4989942;28;20043;-82
2023/05/16 03:00:25;;;;;;;0.70;0.70;;;;;;;16.78;83.71;99688.63;4990954;28;20050;-82
2023/05/16 03:02:53;;;;;;;0.70;0.70;;;;;;;16.88;80.31;99687.38;4990675;28;20050;-81
2023/05/16 03:05:21;;;;;;;1.00;0.73;;;;;;;16.88;80.15;99678.28;4989669;28;20042;-81
2023/05/16 03:07:51;;;;;;;0.70;0.70;;;;;;;16.70;80.45;99672.97;4990660;28;20049;-81
2023/05/16 03:10:19;;;;;;;2.70;0.98;;;;;;;16.59;81.42;99669.03;4989002;28;20059;-82
2023/05/16 03:12:47;;;;;;;0.40;0.40;;;;;;;16.68;79.93;99672.53;4990643;28;20160;-81
2023/05/16 03:15:16;;;;;;;2.63;0.55;;;;;;;16.66;80.79;99675.63;4989639;28;20069;-82
2023/05/16 03:17:44;;;;;;;1.17;0.55;;;;;;;16.71;79.31;99666.28;4990442;28;20058;-82
2023/05/16 03:20:12;;;;;;;1.65;0.60;;;;;;;16.66;78.94;99678.38;4990470;28;20400;-82
2023/05/16 03:22:40;;;;;;;1.35;0.85;;;;;;;16.54;77.97;99675.59;4988915;28;20050;-82
2023/05/16 03:25:10;;;;;;;0.50;0.50;;;;;;;16.74;76.17;99673.91;4990648;28;20512;-82
2023/05/16 03:27:40;;;;;;;1.35;0.70;;;;;;;16.73;75.36;99666.78;4990204;28;20244;-82
2023/05/16 03:30:08;;;;;;;1.00;0.80;;;;;;;16.53;76.80;99654.66;4989823;28;20508;-82
2023/05/16 03:32:37;;;;;;;0.68;0.57;;;;;;;16.65;78.07;99662.97;4990067;28;20054;-81
2023/05/16 03:35:05;;;;;;;0.52;0.52;;;;;;;16.64;73.85;99649.50;4989949;28;20065;-82
2023/05/16 03:37:34;;;;;;;0.68;0.63;;;;;;;16.63;74.78;99668.00;4990098;28;20077;-82
2023/05/16 03:40:04;;;;;;;0.90;0.40;;;;;;;16.73;73.80;99664.00;4988969;28;20386;-83
2023/05/16 03:42:32;;;;;;;1.00;0.80;;;;;;;16.62;74.59;99663.63;4989164;28;20038;-82
2023/05/16 03:45:00;;;;;;;0.52;0.50;;;;;;;16.73;76.04;99658.50;4988754;28;20058;-82
2023/05/16 03:47:30;;;;;;;0.70;0.70;;;;;;;16.61;75.08;99659.28;4989885;28;20108;-82
2023/05/16 03:49:58;;;;;;;0.57;0.57;;;;;;;16.68;72.84;99668.94;4990225;28;20061;-83
2023/05/16 03:52:26;;;;;;;1.02;0.40;;;;;;;16.58;74.31;99653.63;4989994;28;20065;-81
2023/05/16 03:54:54;;;;;;;0.95;0.47;;;;;;;16.61;73.91;99662.03;4990036;28;20053;-83
2023/05/16 03:57:22;;;;;;;0.88;0.60;;;;;;;16.67;75.05;99670.88;4989722;28;20472;-81
2023/05/16 03:59:50;;;;;;;0.60;0.60;;;;;;;16.63;75.53;99658.94;4990047;28;20046;-81
2023/05/16 04:02:18;;;;;;;2.83;0.82;;;;;;;16.48;75.45;99660.41;4989718;28;20053;-80
2023/05/16 04:04:46;;;;;;;0.95;0.70;;;;;;;16.55;77.57;99657.88;4988935;28;20061;-81
2023/05/16 04:07:14;;;;;;;1.17;0.77;;;;;;;16.48;77.23;99657.66;4989842;28;20051;-82
2023/05/16 04:09:42;;;;;;;0.75;0.75;;;;;;;16.61;78.91;99659.28;4989694;28;20408;-81
2023/05/16 04:12:10;;;;;;;1.00;0.63;;;;;;;16.36;78.18;99650.97;4988509;28;20538;-82
2023/05/16 04:14:38;;;;;;;0.85;0.80;;;;;;;16.58;76.34;99667.44;4989604;28;20038;-83
2023/05/16 04:17:06;;;;;;;2.05;0.65;;;;;;;16.50;76.06;99658.09;4989841;28;20396;-82
2023/05/16 04:19:34;;;;;;;1.30;0.75;;;;;;;16.37;77.83;99669.13;4980276;28;20051;-83
2023/05/16 04:22:02;;;;;;;2.75;1.10;;;;;;;16.43;75.93;99655.09;4989499;28;20046;-82
2023/05/16 04:24:30;;;;;;;1.88;0.70;;;;;;;16.33;75.36;99662.66;4989592;28;20275;-81
2023/05/16 04:26:58;;;;;;;3.45;0.82;;;;;;;16.42;76.69;99668.09;4989671;28;20492;-81
2023/05/16 04:29:26;;;;;;;0.98;0.98;;;;;;;16.36;75.26;99659.22;4988806;28;20439;-82
2023/05/16 04:31:55;;;;;;;0.95;0.90;;;;;;;16.36;77.80;99677.75;4989380;28;20045;-83
2023/05/16 04:34:26;;;;;;;0.90;0.90;;;;;;;16.19;79.70;99665.72;5020717;28;20049;-82
2023/05/16 04:36:54;;;;;;;0.88;0.82;;;;;;;16.38;81.46;99669.94;4989602;28;20053;-81
2023/05/16 04:39:22;;;;;;;0.77;0.77;;;;;;;16.12;80.91;99654.44;4989778;28;20049;-82
2023/05/16 04:41:51;;;;;;;2.00;0.70;;;;;;;16.09;82.78;99653.16;5090434;28;20053;-84
2023/05/16 04:44:19;;;;;;;1.00;0.90;;;;;;;15.85;85.15;99657.44;4989890;28;20049;-83
2023/05/16 04:46:47;;;;;;;1.98;1.00;;;;;;;15.80;87.08;99657.63;4990251;28;20077;-84
2023/05/16 04:49:15;;;;;;;4.15;0.70;;;;;;;15.91;88.65;99652.53;4988190;28;20054;-83
2023/05/16 04:51:43;;;;;;;2.38;0.80;;;;;;;16.11;89.69;99656.41;4989581;28;20047;-76
2023/05/16 04:54:11;;;;;;;1.42;1.13;;;;;;;16.24;88.24;99653.69;4991119;28;20054;-75
2023/05/16 04:56:42;;;;;;;1.17;0.90;;;;;;;16.33;88.89;99657.16;4993224;28;20042;-75
2023/05/16 04:59:10;;;;;;;1.60;1.42;;;;;;;16.37;89.47;99673.84;4991470;28;20062;-76
2023/05/16 05:01:38;;;;;;;1.70;1.13;;;;;;;16.36;88.52;99666.69;4991852;28;20049;-75
2023/05/16 05:04:06;;;;;;;1.30;1.00;;;;;;;16.32;88.06;99669.34;4992776;28;20054;-75
2023/05/16 05:06:34;;;;;;;0.95;0.93;;;;;;;16.38;89.02;99670.72;4992614;28;20046;-75
2023/05/16 05:09:04;;;;;;;1.27;0.93;;;;;;;16.28;88.84;99670.38;5057389;28;20081;-74
2023/05/16 05:11:34;;;;;;;1.67;1.05;;;;;;;16.19;88.86;99673.22;4991344;28;20515;-75
2023/05/16 05:14:02;;;;;;;1.27;1.17;;;;;;;16.02;90.10;99669.47;4992683;28;20058;-74
2023/05/16 05:16:30;;;;;;;2.03;1.25;;;;;;;16.11;92.46;99663.88;4986306;28;20485;-74
2023/05/16 05:18:58;;;;;;;1.25;1.17;;;;;;;16.19;89.30;99675.97;4985526;28;20057;-74
2023/05/16 05:21:26;;;;;;;1.80;1.02;;;;;;;16.23;90.27;99682.44;4991405;28;20043;-74
2023/05/16 05:23:54;;;;;;;4.03;1.30;;;;;;;16.14;91.63;99687.22;4982266;28;20488;-74
2023/05/16 05:26:24;;;;;;;1.42;1.33;;;;;;;16.04;98.67;99683.72;4994330;28;20057;-74
2023/05/16 05:28:52;;;;;;;1.77;1.20;;;;;;;15.97;97.82;99680.72;4992438;28;20062;-73
2023/05/16 05:31:33;;;;;;;1.98;1.35;;;;;;;16.10;98.02;99679.66;4999088;28;20050;-73
2023/05/16 05:34:02;;;;;;;1.23;1.08;;;;;;;16.09;98.25;99682.75;4992630;28;20061;-74
2023/05/16 05:36:30;;;;;;;1.70;1.27;;;;;;;16.01;100.00;99673.38;4990622;28;20489;-75
2023/05/16 05:38:58;;;;;;;1.70;1.13;;;;;;;15.83;100.00;99665.25;4988353;28;20037;-74
2023/05/16 05:41:27;;;;;;;3.28;1.58;;;;;;;15.91;100.00;99666.31;5087991;28;20404;-84
2023/05/16 05:43:55;;;;;;;4.15;1.10;;;;;;;15.92;100.00;99665.19;4958458;28;20046;-75
2023/05/16 05:46:24;;;;;;;1.42;1.20;;;;;;;16.17;100.00;99658.97;4974824;28;20046;-87
2023/05/16 05:48:53;;;;;;;2.28;0.77;;;;;;;16.34;99.98;99666.25;4982265;28;20404;-81
2023/05/16 05:51:21;;;;;;;2.42;1.30;;;;;;;16.40;99.80;99653.84;4992095;28;20065;-81
2023/05/16 05:53:49;;;;;;;2.45;1.40;;;;;;;16.44;99.82;99649.25;5022641;28;20049;-81
2023/05/16 05:56:17;;;;;;;3.22;1.75;;;;;;;16.48;98.04;99650.16;4991548;28;20054;-81
2023/05/16 05:58:45;;;;;;;1.50;1.40;;;;;;;16.47;99.56;99651.31;4984373;28;20485;-82
2023/05/16 06:01:13;;;;;;;1.50;1.40;;;;;;;16.33;100.00;99661.88;4991132;28;20057;-82
2023/05/16 06:03:42;;;;;;;2.97;1.10;;;;;;;16.19;99.41;99656.66;4973404;28;20054;-81
2023/05/16 06:06:10;;;;;;;1.20;1.20;;;;;;;16.18;99.59;99666.09;4973855;28;20051;-82
2023/05/16 06:08:38;;;;;;;2.95;1.65;;;;;;;16.32;99.55;99650.00;4978119;28;20124;-83
2023/05/16 06:11:07;;;;;;;1.63;1.23;;;;;;;16.44;98.79;99634.63;4977422;28;20039;-82
2023/05/16 06:13:35;;;;;;;2.90;1.30;;;;;;;16.51;98.64;99634.84;4990956;28;20352;-82
2023/05/16 06:16:04;;;;;;;1.98;1.70;;;;;;;16.39;100.00;99633.69;4970823;28;20058;-82
2023/05/16 06:18:34;;;;;;;1.85;1.63;;;;;;;16.34;100.00;99655.19;4974227;28;20047;-82
2023/05/16 06:21:03;;;;;;;2.17;1.40;;;;;;;16.39;100.00;99661.28;4971724;28;20051;-82
2023/05/16 06:23:31;;;;;;;3.53;1.55;;;;;;;16.39;100.00;99652.22;4971423;28;20413;-82
2023/05/16 06:25:59;;;;;;;1.95;1.80;;;;;;;16.32;100.00;99640.94;4981688;28;20404;-82
2023/05/16 06:28:27;;;;;;;1.67;1.35;;;;;;;16.36;100.00;99658.41;4991072;28;20050;-82
2023/05/16 06:30:55;;;;;;;2.08;1.52;;;;;;;16.43;100.00;99644.06;4988941;28;20046;-83
2023/05/16 06:33:23;;;;;;;5.05;2.05;;;;;;;16.34;100.00;99658.78;4991217;28;20050;-83
2023/05/16 06:35:52;;;;;;;1.90;1.80;;;;;;;16.35;100.00;99660.38;4990474;28;20057;-83
2023/05/16 06:38:20;;;;;;;1.65;1.55;;;;;;;16.25;100.00;99652.53;4971629;28;20043;-83
2023/05/16 06:40:48;;;;;;;2.20;2.00;;;;;;;16.27;100.00;99654.97;4979596;28;20046;-83
2023/05/16 06:43:16;;;;;;;2.78;2.22;;;;;;;16.34;100.00;99636.69;4991225;28;20046;-83
2023/05/16 06:45:45;;;;;;;3.25;1.73;;;;;;;16.46;100.00;99643.34;4989340;28;20484;-83
2023/05/16 06:48:14;;;;;;;4.60;2.33;;;;;;;16.27;100.00;99630.13;4983177;28;20054;-82
2023/05/16 06:50:46;;;;;;;2.30;2.13;;;;;;;16.39;100.00;99635.66;4991098;28;20061;-83
2023/05/16 06:53:14;;;;;;;2.40;2.00;;;;;;;16.22;100.00;99637.47;4976913;28;20051;-82
2023/05/16 06:55:43;;;;;;;4.25;2.22;;;;;;;16.32;100.00;99655.53;4976160;28;20390;-83
2023/05/16 06:58:11;;;;;;;2.17;1.98;;;;;;;16.18;100.00;99642.03;4986553;28;20082;-82
2023/05/16 07:00:40;;;;;;;2.95;1.73;;;;;;;16.27;100.00;99641.94;4990187;28;20043;-82
2023/05/16 07:03:08;;;;;;;2.28;2.08;;;;;;;16.43;100.00;99644.06;4989457;28;20362;-82
2023/05/16 07:05:36;;;;;;;3.72;2.30;;;;;;;16.39;100.00;99643.94;4989405;28;20046;-82
2023/05/16 07:08:04;;;;;;;3.88;2.05;;;;;;;16.57;100.00;99650.06;4988747;28;20049;-82
2023/05/16 07:10:35;;;;;;;5.88;2.13;;;;;;;16.61;100.00;99656.50;4990220;28;20042;-82
2023/05/16 07:13:03;;;;;;;2.83;1.80;;;;;;;16.55;100.00;99646.84;4978852;28;20039;-82
2023/05/16 07:15:32;;;;;;;2.03;1.90;;;;;;;16.64;100.00;99652.25;4988376;28;20046;-83
2023/05/16 07:18:00;;;;;;;4.32;2.72;;;;;;;16.69;100.00;99656.75;4988409;28;20042;-89
2023/05/16 07:20:28;;;;;;;4.65;2.22;;;;;;;16.75;100.00;99663.66;4980694;28;20051;-80
2023/05/16 07:22:56;;;;;;;3.78;2.80;;;;;;;16.93;100.00;99662.25;5016837;28;20054;-81
2023/05/16 07:25:25;;;;;;;2.33;2.13;;;;;;;17.04;98.87;99656.31;4990863;28;20054;-81
2023/05/16 07:27:53;;;;;;;4.88;2.17;;;;;;;17.05;99.81;99671.75;4990871;28;20049;-83
2023/05/16 07:30:21;;;;;;;7.78;2.20;;;;;;;17.10;97.75;99671.50;4989826;28;20486;-83
2023/05/16 07:32:49;;;;;;;3.47;2.10;;;;;;;17.04;98.14;99668.19;4978543;28;20039;-81
2023/05/16 07:35:17;;;;;;;3.22;2.00;;;;;;;16.99;96.74;99681.38;4972212;28;20062;-81
2023/05/16 07:37:46;;;;;;;4.20;2.42;;;;;;;16.94;96.69;99685.19;4970565;28;20047;-81
2023/05/16 07:40:14;;;;;;;2.67;2.35;;;;;;;16.74;100.00;99693.25;4970146;28;20069;-81
2023/05/16 07:42:42;;;;;;;4.35;2.60;;;;;;;16.52;100.00;99699.97;4982289;28;20042;-82
2023/05/16 07:45:10;;;;;;;2.88;2.20;;;;;;;16.68;100.00;99707.63;4989790;28;20042;-91
2023/05/16 07:47:38;;;;;;;3.55;2.78;;;;;;;16.78;100.00;99704.41;4962678;28;20047;-82
2023/05/16 07:50:06;;;;;;;2.78;2.40;;;;;;;16.72;100.00;99706.56;4970211;28;20137;-81
2023/05/16 07:52:35;;;;;;;4.78;2.30;;;;;;;16.79;99.96;99717.06;4969779;28;20495;-80
2023/05/16 07:55:03;;;;;;;4.22;2.10;;;;;;;16.65;100.00;99723.75;4970393;28;20050;-81
2023/05/16 07:57:31;;;;;;;3.45;2.47;;;;;;;16.81;100.00;99725.81;5078159;28;20042;-81
2023/05/16 07:59:59;;;;;;;3.17;2.40;;;;;;;16.77;100.00;99725.69;4969808;28;20043;-81
2023/05/16 08:02:29;;;;;;;5.25;2.60;;;;;;;16.77;100.00;99730.44;5059141;28;20055;-81
2023/05/16 08:04:58;;;;;;;3.05;2.35;;;;;;;16.84;100.00;99733.44;4975513;28;20058;-81
2023/05/16 08:07:26;;;;;;;3.92;2.40;;;;;;;16.75;100.00;99722.47;4986368;28;20034;-81
2023/05/16 08:09:54;;;;;;;3.55;2.13;;;;;;;16.85;99.96;99710.16;4988557;28;20520;-81
2023/05/16 08:12:23;;;;;;;3.92;2.20;;;;;;;16.73;98.32;99696.34;4986686;28;20046;-81
2023/05/16 08:14:53;;;;;;;3.85;1.90;;;;;;;16.65;99.91;99707.16;4988796;28;20401;-81
2023/05/16 08:17:21;;;;;;;3.47;2.17;;;;;;;16.70;100.00;99713.59;4989283;28;20045;-81
2023/05/16 08:19:49;;;;;;;4.20;2.33;;;;;;;16.84;100.00;99710.50;4988263;28;20046;-81
2023/05/16 08:22:17;;;;;;;3.97;2.22;;;;;;;16.84;100.00;99708.56;4989007;28;20058;-81
2023/05/16 08:24:45;;;;;;;5.38;2.00;;;;;;;16.82;99.38;99710.88;4989200;28;20447;-81
2023/05/16 08:27:13;;;;;;;3.13;1.90;;;;;;;16.76;100.00;99723.28;4989385;28;20053;-81
2023/05/16 08:29:41;;;;;;;2.92;2.20;;;;;;;16.84;99.11;99703.03;4991758;28;20073;-81
2023/05/16 08:32:10;;;;;;;2.88;1.48;;;;;;;16.78;99.12;99707.19;4992985;28;20047;-81
2023/05/16 08:34:37;;;;;;;1.70;1.55;;;;;;;16.84;96.91;99696.69;4992519;28;20055;-81
2023/05/16 08:37:06;;;;;;;3.47;1.48;;;;;;;16.89;97.10;99710.28;4992805;28;20042;-81
2023/05/16 08:39:33;;;;;;;4.00;1.80;;;;;;;16.89;99.18;99704.75;4992888;28;20054;-81
2023/05/16 08:42:04;;;;;;;1.52;1.30;;;;;;;16.79;98.12;99708.78;4992779;28;20503;-81
2023/05/16 08:44:33;;;;;;;2.05;1.10;;;;;;;16.86;100.00;99711.78;4991225;28;20050;-81
2023/05/16 08:47:16;;;;;;;2.60;1.45;;;;;;;17.02;98.85;99717.47;4992536;28;20057;-81
2023/05/16 08:49:47;;;;;;;2.40;1.60;;;;;;;17.05;98.99;99707.66;4992361;28;20049;-81
2023/05/16 08:52:19;;;;;;;1.73;1.30;;;;;;;16.94;100.00;99715.59;4991199;28;20050;-81
2023/05/16 08:54:49;;;;;;;2.92;1.55;;;;;;;16.96;100.00;99720.78;4992247;28;20492;-81
2023/05/16 08:57:35;;;;;;;2.45;1.55;;;;;;;17.04;100.00;99720.69;4992692;28;20420;-81
2023/05/16 09:00:10;;;;;;;2.30;1.95;;;;;;;17.07;100.00;99730.25;4992234;28;20058;-81
2023/05/16 09:02:40;;;;;;;3.10;2.10;;;;;;;17.14;100.00;99738.78;4992571;28;20069;-81
2023/05/16 09:05:12;;;;;;;4.88;1.92;;;;;;;17.05;100.00;99732.53;4992134;28;20050;-81
2023/05/16 09:07:41;;;;;;;2.30;1.85;;;;;;;17.11;100.00;99736.69;4992302;28;20377;-81
2023/05/16 09:10:11;;;;;;;2.30;2.10;;;;;;;17.08;100.00;99723.56;4992149;28;20053;-81
2023/05/16 09:12:40;;;;;;;1.73;1.35;;;;;;;17.25;99.26;99699.63;4992554;28;20049;-81
2023/05/16 09:15:10;;;;;;;3.03;1.90;;;;;;;17.34;99.67;99700.28;4991997;28;20045;-81
2023/05/16 09:17:45;;;;;;;2.67;1.73;;;;;;;17.37;99.98;99690.50;4992053;28;20050;-81
2023/05/16 09:20:18;;;;;;;2.53;1.67;;;;;;;17.42;100.00;99681.97;4991890;28;20038;-81
2023/05/16 09:22:57;;;;;;;3.70;2.50;;;;;;;17.59;97.97;99689.16;4992112;28;20488;-81
2023/05/16 09:25:27;;;;;;;4.97;2.45;;;;;;;17.58;97.78;99695.88;4991982;28;20488;-81
2023/05/16 09:28:01;;;;;;;4.30;2.30;;;;;;;17.69;95.43;99682.38;4992118;28;20046;-81
2023/05/16 09:30:32;;;;;;;2.40;2.20;;;;;;;17.73;95.32;99692.38;4991769;28;20073;-81
2023/05/16 09:33:01;;;;;;;4.32;1.90;;;;;;;17.70;95.14;99695.81;4991967;28;20508;-81
2023/05/16 09:35:30;;;;;;;7.70;2.55;;;;;;;17.65;97.68;99687.75;4991711;28;20424;-81
2023/05/16 09:38:16;;;;;;;5.97;2.00;;;;;;;17.57;96.60;99691.50;4991969;28;20047;-81
2023/05/16 09:40:45;;;;;;;4.97;2.33;;;;;;;17.57;95.88;99680.44;4991603;28;20061;-81
2023/05/16 09:43:15;;;;;;;2.35;1.65;;;;;;;17.57;94.88;99678.47;4991777;28;20046;-81
2023/05/16 09:45:46;;;;;;;4.53;1.95;;;;;;;17.50;96.89;99666.38;5023060;28;20385;-81
2023/05/16 09:48:15;;;;;;;4.75;2.40;;;;;;;17.13;100.00;99654.25;4991194;28;20054;-81
2023/05/16 09:50:51;;;;;;;3.55;1.92;;;;;;;17.25;99.65;99638.78;4991502;28;20046;-81
2023/05/16 09:53:26;;;;;;;1.85;1.70;;;;;;;17.26;98.70;99646.72;4991505;28;20050;-80
2023/05/16 09:56:14;;;;;;;1.85;1.75;;;;;;;17.30;98.41;99655.16;4991404;28;20396;-80
2023/05/16 09:58:44;;;;;;;2.83;1.85;;;;;;;17.27;99.85;99664.94;4991745;28;20057;-81
2023/05/16 10:01:12;;;;;;;3.30;1.90;;;;;;;17.29;100.00;99656.28;4991931;28;20404;-81
2023/05/16 10:03:42;;;;;;;3.10;1.85;;;;;;;17.43;98.29;99653.97;4991700;28;20061;-81
2023/05/16 10:06:12;;;;;;;2.38;1.60;;;;;;;17.47;98.75;99656.81;4991436;28;20480;-81
2023/05/16 10:08:42;;;;;;;2.03;1.15;;;;;;;17.62;96.93;99655.28;4991588;28;20054;-81
2023/05/16 10:11:12;;;;;;;2.03;1.55;;;;;;;17.91;95.54;99661.66;4991408;28;20701;-81
2023/05/16 10:13:40;;;;;;;2.10;1.75;;;;;;;18.14;95.37;99658.34;5022353;28;20050;-81
2023/05/16 10:16:12;;;;;;;3.95;1.40;;;;;;;18.37;95.34;99663.25;4991028;28;20043;-81
2023/05/16 10:18:44;;;;;;;1.08;0.93;;;;;;;18.50;93.02;99667.59;5021983;28;20049;-81
2023/05/16 10:21:16;;;;;;;1.98;1.40;;;;;;;18.63;97.27;99673.03;4991166;28;20058;-81
2023/05/16 10:23:49;;;;;;;4.15;1.20;;;;;;;18.72;92.97;99670.88;5022290;28;20054;-81
2023/05/16 10:26:21;;;;;;;2.45;1.30;;;;;;;19.08;92.09;99657.13;4982532;28;20050;-81
2023/05/16 10:28:50;;;;;;;3.05;1.15;;;;;;;18.91;86.41;99661.84;5015134;28;20046;-81
2023/05/16 10:31:19;;;;;;;2.53;0.93;;;;;;;18.87;84.23;99674.03;4982901;28;20043;-81
2023/05/16 10:33:47;;;;;;;1.08;0.77;;;;;;;18.87;86.78;99662.94;5070748;28;20047;-81
2023/05/16 10:36:16;;;;;;;2.40;0.98;;;;;;;18.99;83.75;99687.78;4969178;28;20055;-81
2023/05/16 10:38:45;;;;;;;2.78;0.82;;;;;;;19.13;84.09;99667.13;4971158;28;20058;-81
2023/05/16 10:41:14;;;;;;;2.67;0.77;;;;;;;19.18;83.66;99684.31;4977707;28;20038;-81
2023/05/16 10:43:46;;;;;;;0.90;0.70;;;;;;;19.17;88.08;99699.31;4989830;28;20045;-81
2023/05/16 10:46:15;;;;;;;1.10;1.00;;;;;;;19.25;84.95;99694.75;4984003;28;20039;-81
2023/05/16 10:48:43;;;;;;;3.70;0.80;;;;;;;19.24;84.18;99695.91;4970251;28;20046;-81
2023/05/16 10:51:37;;;;;;;1.90;0.80;;;;;;;19.30;86.60;99711.09;4971133;28;20110;-81
2023/05/16 10:54:11;;;;;;;1.50;0.95;;;;;;;19.01;84.12;99713.16;4971685;28;20413;-81
2023/05/16 10:56:39;;;;;;;0.75;0.70;;;;;;;18.95;85.03;99720.16;4973891;28;20051;-81
2023/05/16 10:59:25;;;;;;;0.70;0.70;;;;;;;19.01;85.42;99702.06;4972781;28;20409;-81
2023/05/16 11:01:54;;;;;;;4.18;0.98;;;;;;;18.84;82.08;99707.97;4976171;28;20050;-81
2023/05/16 11:04:43;;;;;;;1.58;1.13;;;;;;;18.84;85.76;99696.91;4978618;28;20409;-80
2023/05/16 11:07:11;;;;;;;0.70;0.70;;;;;;;18.82;85.48;99693.69;4970766;28;20046;-80
2023/05/16 11:09:43;;;;;;;1.40;0.95;;;;;;;18.81;85.10;99687.34;4971719;28;20055;-81
2023/05/16 11:12:12;;;;;;;1.88;0.90;;;;;;;18.75;82.29;99678.50;4971136;28;20047;-80
2023/05/16 11:14:46;;;;;;;1.23;1.00;;;;;;;18.39;81.88;99672.03;4970885;28;20516;-81
2023/05/16 11:17:19;;;;;;;;;;;;;;;18.37;85.90;99672.38;4972865;28;20397;-81
2023/05/16 11:19:57;;;;;;;2.67;0.90;;;;;;;18.74;84.84;99665.81;5068740;28;20343;-81
2023/05/16 11:22:33;;;;;;;3.40;1.15;;;;;;;18.85;87.01;99665.25;4980589;28;20043;-81
2023/05/16 11:25:04;;;;;;;1.60;1.30;;;;;;;18.87;87.08;99662.94;4970832;28;20057;-81
2023/05/16 11:27:42;;;;;;;1.42;1.02;;;;;;;18.82;85.33;99665.97;5070559;28;20057;-81
2023/05/16 11:30:12;;;;;;;1.52;0.90;;;;;;;18.79;86.14;99668.31;4969292;28;20062;-81
2023/05/16 11:32:42;;;;;;;3.00;1.35;;;;;;;18.77;85.54;99676.16;5001490;28;20069;-81
2023/05/16 11:35:15;;;;;;;1.75;1.60;;;;;;;18.48;86.25;99683.75;4969834;28;20051;-81
2023/05/16 11:37:45;;;;;;;1.93;1.40;;;;;;;18.58;85.48;99690.72;4970308;28;20051;-81
2023/05/16 11:40:15;;;;;;;2.38;1.00;;;;;;;18.53;86.22;99691.00;4970134;28;20298;-81
2023/05/16 11:42:47;;;;;;;2.30;1.45;;;;;;;18.46;86.96;99680.53;4970524;28;20516;-81
2023/05/16 11:45:21;;;;;;;2.00;1.25;;;;;;;18.48;85.13;99683.75;4971218;28;20473;-81
2023/05/16 11:47:50;;;;;;;1.33;1.10;;;;;;;18.50;85.64;99688.94;4970201;28;20515;-81